createdAt,value
2023-03-22T00:10:57.014Z,1.22
2023-03-22T00:11:56.972Z,1.22
2023-03-22T00:12:56.911Z,1.23
2023-03-22T00:13:56.857Z,1.24
2023-03-22T00:14:56.813Z,1.24
2023-03-22T00:15:56.791Z,1.21
2023-03-22T00:16:56.737Z,1.24
2023-03-22T00:17:56.674Z,1.22
2023-03-22T00:18:56.630Z,1.22
2023-03-22T00:19:56.581Z,1.22
2023-03-22T00:20:56.547Z,1.21
2023-03-22T00:21:56.492Z,1.19
2023-03-22T00:22:56.431Z,1.20
2023-03-22T00:23:56.392Z,1.21
2023-03-22T00:24:56.339Z,1.21
2023-03-22T00:25:56.310Z,1.22
2023-03-22T00:26:56.252Z,1.22
2023-03-22T00:27:56.185Z,1.23
2023-03-22T00:28:56.143Z,1.21
2023-03-22T00:29:56.091Z,1.18
2023-03-22T00:30:56.057Z,1.23
2023-03-22T00:31:56.001Z,1.24
2023-03-22T00:32:55.952Z,1.22
2023-03-22T00:33:55.909Z,1.19
2023-03-22T00:34:55.861Z,1.22
2023-03-22T00:35:55.863Z,1.19
2023-03-22T00:36:55.759Z,1.22
2023-03-22T00:37:55.705Z,1.18
2023-03-22T00:38:55.687Z,1.18
2023-03-22T00:39:55.606Z,1.20
2023-03-22T00:40:55.547Z,1.18
2023-03-22T00:41:55.516Z,1.20
2023-03-22T00:42:55.442Z,1.18
2023-03-22T00:43:55.399Z,1.17
2023-03-22T00:44:55.334Z,1.20
2023-03-22T00:45:55.292Z,1.18
2023-03-22T00:46:55.238Z,1.17
2023-03-22T00:47:55.200Z,1.16
2023-03-22T00:48:55.138Z,1.13
2023-03-22T00:49:55.063Z,1.17
2023-03-22T00:50:55.009Z,1.17
2023-03-22T00:51:54.971Z,1.18
2023-03-22T00:52:54.907Z,1.18
2023-03-22T00:53:54.845Z,1.19
2023-03-22T00:54:54.808Z,1.16
2023-03-22T00:55:54.728Z,1.18
2023-03-22T00:56:54.696Z,1.18
2023-03-22T00:57:54.629Z,1.15
2023-03-22T00:58:54.578Z,1.16
2023-03-22T00:59:54.513Z,1.17
2023-03-22T01:00:54.495Z,1.15
2023-03-22T01:01:54.420Z,1.15
2023-03-22T01:02:54.354Z,1.15
2023-03-22T01:03:54.447Z,1.16
2023-03-22T01:04:54.235Z,1.16
2023-03-22T01:05:54.166Z,1.16
2023-03-22T01:06:54.111Z,1.17
2023-03-22T01:07:54.052Z,1.13
2023-03-22T01:08:53.994Z,1.13
2023-03-22T01:09:53.941Z,1.14
2023-03-22T01:10:53.897Z,1.14
2023-03-22T01:11:53.850Z,1.14
2023-03-22T01:12:53.774Z,1.14
2023-03-22T01:13:53.730Z,1.14
2023-03-22T01:14:53.664Z,1.12
2023-03-22T01:15:53.642Z,1.14
2023-03-22T01:16:53.624Z,1.13
2023-03-22T01:17:53.506Z,1.12
2023-03-22T01:18:53.464Z,1.11
2023-03-22T01:19:53.413Z,1.13
2023-03-22T01:20:53.353Z,1.13
2023-03-22T01:21:53.317Z,1.11
2023-03-22T01:22:53.257Z,1.12
2023-03-22T01:23:53.213Z,1.10
2023-03-22T01:24:53.162Z,1.12
2023-03-22T01:25:53.101Z,1.10
2023-03-22T01:26:53.059Z,1.12
2023-03-22T01:27:53.014Z,1.12
2023-03-22T01:28:52.957Z,1.11
2023-03-22T01:29:52.903Z,1.10
2023-03-22T01:30:52.895Z,1.11
2023-03-22T01:31:52.799Z,1.13
2023-03-22T01:32:52.778Z,1.08
2023-03-22T01:33:52.705Z,1.09
2023-03-22T01:34:52.661Z,1.10
2023-03-22T01:35:52.609Z,1.10
2023-03-22T01:36:52.559Z,1.11
2023-03-22T01:37:52.546Z,1.10
2023-03-22T01:38:52.471Z,1.11
2023-03-22T01:39:52.415Z,1.12
2023-03-22T01:40:52.359Z,1.08
2023-03-22T01:41:52.315Z,1.10
2023-03-22T01:42:52.265Z,1.09
2023-03-22T01:43:52.252Z,1.09
2023-03-22T01:44:52.164Z,1.10
2023-03-22T01:45:52.178Z,1.08
2023-03-22T01:46:52.076Z,1.08
2023-03-22T01:47:52.162Z,1.08
2023-03-22T01:48:52.001Z,1.07
2023-03-22T01:49:51.988Z,1.10
2023-03-22T01:50:51.906Z,1.09
2023-03-22T01:51:51.864Z,1.08
2023-03-22T01:52:51.822Z,1.09
2023-03-22T01:53:51.769Z,1.08
2023-03-22T01:54:51.741Z,1.09
2023-03-22T01:55:51.660Z,1.07
2023-03-22T01:56:51.619Z,1.09
2023-03-22T01:57:51.571Z,1.10
2023-03-22T01:58:51.510Z,1.08
2023-03-22T01:59:51.479Z,1.08
2023-03-22T02:00:51.422Z,1.07
2023-03-22T02:01:51.373Z,1.07
2023-03-22T02:02:51.340Z,1.06
2023-03-22T02:03:51.290Z,1.05
2023-03-22T02:04:51.214Z,1.07
2023-03-22T02:05:51.156Z,1.06
2023-03-22T02:06:51.111Z,1.07
2023-03-22T02:07:51.052Z,1.05
2023-03-22T02:08:51.005Z,1.04
2023-03-22T02:09:50.965Z,1.06
2023-03-22T02:10:50.925Z,1.06
2023-03-22T02:11:50.854Z,1.06
2023-03-22T02:12:50.947Z,1.06
2023-03-22T02:13:50.762Z,1.04
2023-03-22T02:14:50.695Z,1.06
2023-03-22T02:15:50.676Z,1.05
2023-03-22T02:16:50.600Z,1.05
2023-03-22T02:17:50.551Z,1.04
2023-03-22T02:18:50.513Z,1.04
2023-03-22T02:19:50.486Z,1.03
2023-03-22T02:20:50.420Z,1.04
2023-03-22T02:21:50.370Z,1.05
2023-03-22T02:22:50.309Z,1.03
2023-03-22T02:23:50.299Z,1.04
2023-03-22T02:24:50.219Z,1.03
2023-03-22T02:25:50.178Z,1.03
2023-03-22T02:26:50.128Z,1.06
2023-03-22T02:27:50.096Z,1.03
2023-03-22T02:28:50.030Z,1.04
2023-03-22T02:29:49.986Z,1.03
2023-03-22T02:30:50.024Z,1.02
2023-03-22T02:31:49.892Z,1.03
2023-03-22T02:32:49.846Z,1.03
2023-03-22T02:33:49.813Z,1.03
2023-03-22T02:34:49.751Z,1.04
2023-03-22T02:35:49.729Z,1.03
2023-03-22T02:36:49.664Z,1.04
2023-03-22T02:37:49.613Z,1.04
2023-03-22T02:38:49.549Z,1.02
2023-03-22T02:39:49.494Z,1.04
2023-03-22T02:40:49.454Z,1.02
2023-03-22T02:41:49.393Z,1.04
2023-03-22T02:42:49.357Z,1.03
2023-03-22T02:43:49.334Z,0.96
2023-03-22T02:44:49.258Z,0.89
2023-03-22T02:45:49.231Z,0.77
2023-03-22T02:46:49.172Z,0.72
2023-03-22T02:47:49.190Z,0.69
2023-03-22T02:48:49.099Z,0.62
2023-03-22T02:49:49.040Z,0.60
2023-03-22T02:50:49.014Z,0.55
2023-03-22T02:51:48.977Z,0.53
2023-03-22T02:52:48.953Z,0.50
2023-03-22T02:53:48.926Z,0.51
2023-03-22T02:54:48.894Z,0.50
2023-03-22T02:55:48.869Z,0.50
2023-03-22T02:56:48.835Z,0.50
2023-03-22T02:57:48.813Z,0.49
2023-03-22T02:58:48.791Z,0.46
2023-03-22T02:59:48.772Z,0.44
2023-03-22T03:00:48.754Z,0.42
2023-03-22T03:01:48.741Z,0.49
2023-03-22T03:02:48.692Z,0.50
2023-03-22T03:03:48.663Z,0.50
2023-03-22T03:04:48.651Z,0.50
2023-03-22T03:05:48.629Z,0.51
2023-03-22T03:06:48.593Z,0.50
2023-03-22T03:07:48.567Z,0.50
2023-03-22T03:08:48.517Z,0.51
2023-03-22T03:09:48.505Z,0.50
2023-03-22T03:10:48.470Z,0.50
2023-03-22T03:11:48.454Z,0.51
2023-03-22T03:12:48.422Z,0.50
2023-03-22T03:13:48.401Z,0.51
2023-03-22T03:14:48.405Z,0.51
2023-03-22T03:15:48.353Z,0.50
2023-03-22T03:16:48.317Z,0.50
2023-03-22T03:17:48.290Z,0.51
2023-03-22T03:18:48.268Z,0.51
2023-03-22T03:19:48.263Z,0.51
2023-03-22T03:20:48.226Z,0.50
2023-03-22T03:21:48.217Z,0.50
2023-03-22T03:22:48.184Z,0.50
2023-03-22T03:23:48.163Z,0.51
2023-03-22T03:24:48.150Z,0.50
2023-03-22T03:25:48.127Z,0.51
2023-03-22T03:26:48.110Z,0.50
2023-03-22T03:27:48.107Z,0.51
2023-03-22T03:28:48.064Z,0.50
2023-03-22T03:29:48.060Z,0.51
2023-03-22T03:30:48.046Z,0.52
2023-03-22T03:31:48.065Z,0.53
2023-03-22T03:32:47.997Z,0.54
2023-03-22T03:33:47.984Z,0.52
2023-03-22T03:34:47.993Z,0.53
2023-03-22T03:35:48.042Z,0.53
2023-03-22T03:36:47.939Z,0.52
2023-03-22T03:37:47.922Z,0.53
2023-03-22T03:38:47.894Z,0.52
2023-03-22T03:39:47.873Z,0.52
2023-03-22T03:40:47.882Z,0.52
2023-03-22T03:41:47.867Z,0.52
2023-03-22T03:42:47.827Z,0.51
2023-03-22T03:43:47.822Z,0.51
2023-03-22T03:44:47.791Z,0.50
2023-03-22T03:45:47.820Z,0.51
2023-03-22T03:46:47.762Z,0.50
2023-03-22T03:47:47.765Z,0.51
2023-03-22T03:48:47.730Z,0.50
2023-03-22T03:49:47.735Z,0.52
2023-03-22T03:50:47.697Z,0.52
2023-03-22T03:51:47.693Z,0.52
2023-03-22T03:52:47.659Z,0.50
2023-03-22T03:53:47.640Z,0.50
2023-03-22T03:54:47.628Z,0.50
2023-03-22T03:55:47.622Z,0.50
2023-03-22T03:56:47.589Z,0.51
2023-03-22T03:57:47.580Z,0.51
2023-03-22T03:58:47.563Z,0.51
2023-03-22T03:59:47.554Z,0.52
2023-03-22T04:00:47.533Z,0.50
2023-03-22T04:01:47.505Z,0.51
2023-03-22T04:02:47.501Z,0.51
2023-03-22T04:03:47.461Z,0.51
2023-03-22T04:04:47.493Z,0.49
2023-03-22T04:05:47.479Z,0.50
2023-03-22T04:06:47.414Z,0.51
2023-03-22T04:07:47.406Z,0.51
2023-03-22T04:08:47.393Z,0.50
2023-03-22T04:09:47.370Z,0.50
2023-03-22T04:10:47.373Z,0.52
2023-03-22T04:11:47.363Z,0.52
2023-03-22T04:12:47.351Z,0.54
2023-03-22T04:13:47.332Z,0.56
2023-03-22T04:14:47.311Z,0.58
2023-03-22T04:15:47.312Z,0.60
2023-03-22T04:16:47.401Z,0.63
2023-03-22T04:17:47.265Z,0.65
2023-03-22T04:18:47.264Z,0.66
2023-03-22T04:19:47.248Z,0.68
2023-03-22T04:20:47.237Z,0.70
2023-03-22T04:21:47.225Z,0.71
2023-03-22T04:22:47.216Z,0.71
2023-03-22T04:23:47.208Z,0.73
2023-03-22T04:24:47.187Z,0.73
2023-03-22T04:25:47.180Z,0.73
2023-03-22T04:26:47.151Z,0.73
2023-03-22T04:27:47.154Z,0.74
2023-03-22T04:28:47.137Z,0.73
2023-03-22T04:29:47.129Z,0.73
2023-03-22T04:30:47.148Z,0.73
2023-03-22T04:31:47.112Z,0.73
2023-03-22T04:32:47.102Z,0.73
2023-03-22T04:33:47.076Z,0.74
2023-03-22T04:34:47.062Z,0.75
2023-03-22T04:35:47.120Z,0.75
2023-03-22T04:36:47.044Z,0.75
2023-03-22T04:37:47.041Z,0.75
2023-03-22T04:38:47.032Z,0.76
2023-03-22T04:39:47.023Z,0.76
2023-03-22T04:40:47.019Z,0.77
2023-03-22T04:41:47.003Z,0.77
2023-03-22T04:42:46.996Z,0.76
2023-03-22T04:43:47.072Z,0.76
2023-03-22T04:44:46.975Z,0.75
2023-03-22T04:45:46.964Z,0.74
2023-03-22T04:46:47.060Z,0.73
2023-03-22T04:47:46.996Z,0.72
2023-03-22T04:48:46.940Z,0.71
2023-03-22T04:49:46.930Z,0.72
2023-03-22T04:50:46.938Z,0.71
2023-03-22T04:51:46.927Z,0.69
2023-03-22T04:52:46.903Z,0.69
2023-03-22T04:53:46.901Z,0.69
2023-03-22T04:54:46.900Z,0.69
2023-03-22T04:55:46.882Z,0.69
2023-03-22T04:56:46.891Z,0.70
2023-03-22T04:57:46.872Z,0.70
2023-03-22T04:58:46.857Z,0.70
2023-03-22T04:59:46.860Z,0.70
2023-03-22T05:00:46.866Z,0.70
2023-03-22T06:56:44.885Z,2.30
2023-03-22T06:59:44.770Z,2.33
2023-03-22T07:00:44.729Z,2.40
2023-03-22T07:01:44.750Z,2.49
2023-03-22T07:03:44.622Z,2.55
2023-03-22T07:04:44.629Z,2.59
2023-03-22T07:05:44.575Z,2.64
2023-03-22T07:06:44.524Z,2.71
2023-03-22T07:07:44.473Z,2.73
2023-03-22T07:08:44.515Z,2.88
2023-03-22T07:09:44.400Z,2.84
2023-03-22T07:10:44.413Z,3.04
2023-03-22T07:12:44.336Z,2.87
2023-03-22T07:13:44.259Z,3.07
2023-03-22T07:14:44.220Z,3.07
2023-03-22T07:15:44.196Z,3.08
2023-03-22T07:16:44.141Z,3.07
2023-03-22T07:17:44.128Z,3.09
2023-03-22T07:18:44.096Z,3.13
2023-03-22T07:19:44.022Z,3.21
2023-03-22T07:21:43.957Z,3.37
2023-03-22T07:23:43.889Z,3.33
2023-03-22T07:24:55.541Z,3.42
2023-03-22T07:25:44.809Z,3.43
2023-03-22T07:26:43.762Z,3.45
2023-03-22T07:27:43.726Z,3.44
2023-03-22T07:29:43.637Z,3.49
2023-03-22T07:30:43.601Z,3.52
2023-03-22T07:31:43.573Z,3.60
2023-03-22T07:32:43.524Z,3.72
2023-03-22T07:33:43.489Z,3.73
2023-03-22T07:34:43.436Z,3.75
2023-03-22T07:35:43.387Z,3.80
2023-03-22T07:36:43.331Z,3.86
2023-03-22T07:37:43.500Z,3.90
2023-03-22T07:38:43.226Z,3.83
2023-03-22T07:39:43.182Z,3.76
2023-03-22T07:40:43.139Z,3.93
2023-03-22T07:41:43.085Z,4.07
2023-03-22T07:42:43.041Z,4.01
2023-03-22T07:43:54.053Z,3.94
2023-03-22T07:45:42.900Z,3.86
2023-03-22T07:46:42.917Z,3.77
2023-03-22T07:47:42.902Z,3.45
2023-03-22T07:48:42.804Z,3.37
2023-03-22T07:49:42.770Z,3.41
2023-03-22T07:50:42.718Z,3.30
2023-03-22T07:51:42.775Z,3.39
2023-03-22T07:52:42.615Z,3.45
2023-03-22T07:53:42.569Z,3.70
2023-03-22T07:54:42.534Z,4.10
2023-03-22T07:55:42.499Z,4.35
2023-03-22T07:56:42.463Z,4.58
2023-03-22T07:57:42.420Z,4.71
2023-03-22T07:58:42.395Z,4.98
2023-03-22T07:59:42.320Z,4.86
2023-03-22T08:00:42.282Z,4.71
2023-03-22T08:01:42.302Z,4.89
2023-03-22T08:02:42.225Z,5.05
2023-03-22T08:03:42.145Z,4.79
2023-03-22T08:04:42.215Z,4.80
2023-03-22T08:05:42.701Z,4.44
2023-03-22T08:06:42.197Z,4.30
2023-03-22T08:07:42.042Z,4.09
2023-03-22T08:08:41.916Z,4.28
2023-03-22T08:09:41.885Z,4.29
2023-03-22T08:10:41.953Z,4.37
2023-03-22T08:11:41.789Z,4.17
2023-03-22T08:12:41.734Z,4.01
2023-03-22T08:13:41.703Z,3.80
2023-03-22T08:14:41.656Z,3.60
2023-03-22T08:15:41.689Z,3.45
2023-03-22T08:16:41.645Z,3.35
2023-03-22T08:17:41.519Z,3.37
2023-03-22T08:18:43.602Z,3.17
2023-03-22T08:19:41.410Z,3.17
2023-03-22T08:20:41.915Z,3.02
2023-03-22T08:21:41.289Z,2.84
2023-03-22T08:22:41.241Z,2.70
2023-03-22T08:23:42.435Z,2.74
2023-03-22T08:24:41.196Z,2.73
2023-03-22T08:25:41.110Z,2.71
2023-03-22T08:26:41.064Z,2.66
2023-03-22T08:27:41.031Z,2.64
2023-03-22T08:28:40.963Z,2.41
2023-03-22T08:29:40.919Z,2.41
2023-03-22T08:30:41.169Z,2.40
2023-03-22T08:31:40.873Z,2.32
2023-03-22T08:32:40.768Z,2.43
2023-03-22T08:33:40.715Z,2.41
2023-03-22T08:34:40.678Z,2.42
2023-03-22T08:35:40.962Z,2.37
2023-03-22T08:36:40.563Z,2.40
2023-03-22T08:37:40.523Z,1.66
2023-03-22T08:38:40.470Z,1.39
2023-03-22T08:39:40.438Z,1.08
2023-03-22T08:40:40.425Z,0.95
2023-03-22T08:41:40.371Z,0.70
2023-03-22T08:42:40.333Z,0.58
2023-03-22T08:43:40.304Z,0.50
2023-03-22T08:44:40.310Z,0.45
2023-03-22T08:45:40.616Z,0.39
2023-03-22T08:46:40.211Z,0.34
2023-03-22T08:47:40.175Z,0.34
2023-03-22T08:48:40.161Z,0.34
2023-03-22T08:49:40.129Z,0.34
2023-03-22T08:50:40.100Z,0.34
2023-03-22T08:51:40.057Z,0.34
2023-03-22T08:52:40.056Z,0.34
2023-03-22T08:53:40.005Z,0.34
2023-03-22T08:54:39.983Z,0.37
2023-03-22T08:55:40.266Z,0.50
2023-03-22T08:56:39.923Z,0.50
2023-03-22T08:57:39.885Z,0.50
2023-03-22T08:58:39.871Z,0.50
2023-03-22T08:59:39.848Z,0.50
2023-03-22T09:00:48.542Z,0.50
2023-03-22T09:01:40.893Z,0.44
2023-03-22T09:02:39.762Z,0.41
2023-03-22T09:03:39.757Z,0.41
2023-03-22T09:04:39.770Z,0.37
2023-03-22T09:05:39.822Z,0.36
2023-03-22T09:06:39.659Z,0.40
2023-03-22T09:07:39.664Z,0.47
2023-03-22T09:08:39.630Z,0.50
2023-03-22T09:09:39.605Z,0.51
2023-03-22T09:10:39.579Z,0.51
2023-03-22T09:11:39.567Z,0.51
2023-03-22T09:12:39.525Z,0.54
2023-03-22T09:13:39.515Z,0.51
2023-03-22T09:14:39.476Z,0.53
2023-03-22T09:15:39.903Z,0.53
2023-03-22T09:16:39.527Z,0.55
2023-03-22T09:17:39.380Z,0.58
2023-03-22T09:18:39.424Z,0.55
2023-03-22T09:19:39.333Z,0.53
2023-03-22T09:20:39.742Z,0.57
2023-03-22T09:21:39.302Z,0.58
2023-03-22T09:22:39.315Z,0.55
2023-03-22T09:23:39.270Z,0.52
2023-03-22T09:24:39.258Z,0.52
2023-03-22T09:25:39.566Z,0.56
2023-03-22T09:26:39.212Z,0.55
2023-03-22T09:27:39.266Z,0.50
2023-03-22T09:28:39.213Z,0.52
2023-03-22T09:29:39.155Z,0.50
2023-03-22T09:30:39.489Z,0.50
2023-03-22T09:31:39.153Z,0.51
2023-03-22T09:32:39.105Z,0.48
2023-03-22T09:33:39.111Z,0.54
2023-03-22T09:34:39.076Z,0.57
2023-03-22T09:35:39.551Z,0.66
2023-03-22T09:36:39.059Z,0.69
2023-03-22T09:37:39.027Z,0.68
2023-03-22T09:38:39.022Z,0.76
2023-03-22T09:39:39.005Z,0.73
2023-03-22T09:40:38.977Z,0.79
2023-03-22T09:41:39.019Z,0.81
2023-03-22T09:42:38.976Z,0.69
2023-03-22T09:44:38.897Z,0.56
2023-03-22T09:45:39.300Z,0.50
2023-03-22T09:48:38.829Z,0.57
2023-03-22T09:49:52.718Z,0.57
2023-03-22T09:50:39.741Z,0.58
2023-03-22T09:52:38.695Z,0.66
2023-03-22T09:53:38.662Z,0.71
2023-03-22T09:54:38.685Z,0.95
2023-03-22T09:55:38.818Z,1.19
2023-03-22T09:56:38.531Z,1.19
2023-03-22T09:57:39.066Z,1.21
2023-03-22T09:58:38.520Z,1.38
2023-03-22T09:59:38.432Z,1.35
2023-03-22T10:00:38.610Z,1.29
2023-03-22T10:01:38.763Z,1.38
2023-03-22T10:02:38.326Z,1.57
2023-03-22T10:03:38.269Z,1.63
2023-03-22T10:04:38.238Z,1.66
2023-03-22T10:05:38.397Z,1.70
2023-03-22T10:06:38.165Z,1.84
2023-03-22T10:07:38.077Z,1.62
2023-03-22T10:08:38.024Z,1.81
2023-03-22T10:09:37.984Z,1.77
2023-03-22T10:10:37.937Z,1.60
2023-03-22T10:11:37.887Z,1.63
2023-03-22T10:12:37.849Z,1.64
2023-03-22T10:13:37.786Z,1.65
2023-03-22T10:14:37.773Z,1.71
2023-03-22T10:15:37.883Z,1.79
2023-03-22T10:16:37.982Z,1.99
2023-03-22T10:17:37.601Z,2.08
2023-03-22T10:18:37.556Z,2.28
2023-03-22T10:19:37.522Z,2.65
2023-03-22T10:20:37.468Z,2.16
2023-03-22T10:21:37.409Z,2.29
2023-03-22T10:22:37.462Z,2.70
2023-03-22T10:23:37.327Z,2.65
2023-03-22T10:24:37.246Z,2.51
2023-03-22T10:25:37.209Z,2.17
2023-03-22T10:26:37.190Z,2.00
2023-03-22T10:27:37.091Z,2.26
2023-03-22T10:28:37.027Z,2.27
2023-03-22T10:29:36.980Z,2.24
2023-03-22T10:30:36.916Z,1.91
2023-03-22T10:31:36.889Z,1.75
2023-03-22T10:32:45.235Z,2.03
2023-03-22T10:33:37.775Z,2.04
2023-03-22T10:34:36.692Z,2.02
2023-03-22T10:35:36.678Z,2.06
2023-03-22T10:36:36.619Z,1.92
2023-03-22T10:37:36.523Z,2.07
2023-03-22T10:38:36.456Z,1.88
2023-03-22T10:39:38.430Z,1.85
2023-03-22T10:40:36.385Z,1.75
2023-03-22T10:41:36.336Z,1.79
2023-03-22T10:42:36.277Z,1.98
2023-03-22T10:43:36.217Z,1.89
2023-03-22T10:44:36.144Z,1.64
2023-03-22T10:45:36.107Z,2.10
2023-03-22T10:46:36.143Z,1.87
2023-03-22T10:47:36.046Z,1.87
2023-03-22T10:48:36.089Z,1.95
2023-03-22T10:49:35.903Z,1.84
2023-03-22T10:50:35.892Z,1.85
2023-03-22T10:51:35.831Z,1.93
2023-03-22T10:52:35.724Z,2.02
2023-03-22T10:53:35.667Z,2.23
2023-03-22T10:54:35.594Z,2.64
2023-03-22T10:55:35.573Z,2.77
2023-03-22T10:56:35.513Z,3.01
2023-03-22T10:57:35.450Z,3.32
2023-03-22T10:58:35.435Z,3.65
2023-03-22T10:59:35.364Z,3.58
2023-03-22T11:00:38.332Z,4.04
2023-03-22T11:01:36.291Z,4.07
2023-03-22T11:02:35.345Z,4.19
2023-03-22T11:03:35.041Z,4.31
2023-03-22T11:04:35.045Z,4.36
2023-03-22T11:05:34.930Z,5.29
2023-03-22T11:06:34.867Z,6.22
2023-03-22T11:07:34.817Z,6.82
2023-03-22T11:08:34.770Z,7.35
2023-03-22T11:09:34.791Z,7.35
2023-03-22T11:10:34.706Z,6.96
2023-03-22T11:11:34.601Z,6.91
2023-03-22T11:12:34.564Z,5.28
2023-03-22T11:13:34.501Z,5.16
2023-03-22T11:14:34.425Z,5.18
2023-03-22T11:15:34.373Z,4.84
2023-03-22T11:16:34.352Z,5.22
2023-03-22T11:17:34.260Z,4.37
2023-03-22T11:18:34.188Z,3.33
2023-03-22T11:19:34.143Z,3.34
2023-03-22T11:20:34.107Z,2.51
2023-03-22T11:21:34.032Z,2.83
2023-03-22T11:22:33.972Z,2.75
2023-03-22T11:23:33.937Z,2.38
2023-03-22T11:24:33.867Z,2.14
2023-03-22T11:25:33.815Z,2.14
2023-03-22T11:26:34.716Z,1.71
2023-03-22T11:27:33.724Z,1.67
2023-03-22T11:28:33.656Z,1.57
2023-03-22T11:29:33.632Z,1.48
2023-03-22T11:30:33.581Z,1.30
2023-03-22T11:31:33.557Z,1.14
2023-03-22T11:32:33.522Z,1.26
2023-03-22T11:33:33.407Z,1.44
2023-03-22T11:34:33.338Z,1.50
2023-03-22T11:35:33.370Z,1.57
2023-03-22T11:36:33.255Z,1.60
2023-03-22T11:37:33.188Z,1.53
2023-03-22T11:38:33.120Z,1.31
2023-03-22T11:39:33.121Z,1.21
2023-03-22T11:40:33.024Z,1.13
2023-03-22T11:41:32.961Z,1.26
2023-03-22T11:42:32.914Z,1.22
2023-03-22T11:43:32.859Z,1.14
2023-03-22T11:44:32.804Z,1.16
2023-03-22T11:45:32.762Z,1.39
2023-03-22T11:46:32.811Z,1.05
2023-03-22T11:47:32.673Z,0.84
2023-03-22T11:48:32.726Z,1.07
2023-03-22T11:49:32.577Z,1.27
2023-03-22T11:50:32.475Z,1.02
2023-03-22T11:51:32.465Z,1.01
2023-03-22T11:52:32.408Z,1.08
2023-03-22T11:53:32.330Z,1.04
2023-03-22T11:54:32.290Z,0.84
2023-03-22T11:55:32.232Z,0.89
2023-03-22T11:56:32.147Z,1.01
2023-03-22T11:57:32.096Z,1.00
2023-03-22T11:58:32.047Z,0.97
2023-03-22T11:59:31.990Z,1.03
2023-03-22T12:00:31.940Z,0.89
2023-03-22T12:01:31.877Z,0.76
2023-03-22T12:02:31.993Z,0.73
2023-03-22T12:03:32.020Z,0.73
2023-03-22T12:04:31.740Z,0.73
2023-03-22T12:05:31.648Z,0.74
2023-03-22T12:06:31.631Z,0.77
2023-03-22T12:07:31.528Z,0.81
2023-03-22T12:08:31.478Z,1.04
2023-03-22T12:09:31.444Z,1.10
2023-03-22T12:10:31.378Z,1.05
2023-03-22T12:11:31.303Z,0.72
2023-03-22T12:12:31.251Z,0.88
2023-03-22T12:13:31.222Z,0.99
2023-03-22T12:14:31.143Z,0.88
2023-03-22T12:15:31.105Z,0.65
2023-03-22T12:16:31.073Z,0.69
2023-03-22T12:17:31.025Z,0.79
2023-03-22T12:18:30.942Z,0.86
2023-03-22T12:19:30.861Z,0.79
2023-03-22T12:20:30.795Z,0.79
2023-03-22T12:21:30.745Z,0.79
2023-03-22T12:22:30.706Z,0.79
2023-03-22T12:23:30.721Z,0.77
2023-03-22T12:24:30.569Z,0.95
2023-03-22T12:25:30.510Z,0.85
2023-03-22T12:26:30.461Z,0.70
2023-03-22T12:27:30.402Z,0.72
2023-03-22T12:28:30.384Z,0.90
2023-03-22T12:29:30.266Z,1.24
2023-03-22T12:30:30.199Z,1.20
2023-03-22T12:31:30.217Z,1.32
2023-03-22T12:32:30.113Z,1.17
2023-03-22T12:33:30.063Z,1.07
2023-03-22T12:34:29.966Z,1.18
2023-03-22T12:35:29.894Z,1.07
2023-03-22T12:36:29.867Z,1.09
2023-03-22T12:37:31.403Z,1.20
2023-03-22T12:38:29.723Z,1.53
2023-03-22T12:39:29.658Z,1.72
2023-03-22T12:40:29.614Z,1.19
2023-03-22T12:41:29.544Z,0.96
2023-03-22T12:42:30.788Z,0.82
2023-03-22T12:43:29.451Z,0.67
2023-03-22T12:44:29.372Z,0.58
2023-03-22T12:45:29.317Z,0.67
2023-03-22T12:46:29.256Z,0.65
2023-03-22T12:47:29.192Z,0.80
2023-03-22T12:48:29.223Z,0.98
2023-03-22T12:49:29.204Z,1.27
2023-03-22T12:50:28.997Z,1.31
2023-03-22T12:51:28.951Z,1.37
2023-03-22T12:52:32.248Z,1.52
2023-03-22T12:53:29.845Z,1.53
2023-03-22T12:54:28.751Z,1.59
2023-03-22T12:55:28.693Z,1.85
2023-03-22T12:56:28.625Z,2.28
2023-03-22T12:57:28.578Z,3.15
2023-03-22T12:58:28.501Z,3.57
2023-03-22T12:59:28.482Z,3.83
2023-03-22T13:00:28.409Z,4.58
2023-03-22T13:01:28.360Z,4.66
2023-03-22T13:02:28.327Z,4.21
2023-03-22T13:03:28.459Z,5.20
2023-03-22T13:04:28.176Z,20.98
2023-03-22T13:05:28.130Z,41.68
2023-03-22T13:06:28.049Z,77.48
2023-03-22T13:07:27.971Z,85.56
2023-03-22T13:08:27.902Z,58.84
2023-03-22T13:09:27.855Z,49.15
2023-03-22T13:10:27.794Z,36.91
2023-03-22T13:11:27.719Z,33.34
2023-03-22T13:12:27.681Z,34.23
2023-03-22T13:13:27.597Z,33.85
2023-03-22T13:14:27.568Z,33.18
2023-03-22T13:15:34.772Z,34.91
2023-03-22T13:16:28.476Z,34.10
2023-03-22T13:17:27.409Z,34.49
2023-03-22T13:18:27.304Z,32.85
2023-03-22T13:19:27.212Z,34.45
2023-03-22T13:20:27.165Z,35.71
2023-03-22T13:21:27.098Z,34.38
2023-03-22T13:22:27.032Z,34.47
2023-03-22T13:23:26.964Z,34.70
2023-03-22T13:24:26.920Z,34.33
2023-03-22T13:25:26.814Z,35.02
2023-03-22T13:26:26.768Z,38.65
2023-03-22T13:27:26.712Z,40.14
2023-03-22T13:28:26.654Z,37.57
2023-03-22T13:29:26.587Z,37.83
2023-03-22T13:30:26.586Z,40.60
2023-03-22T13:31:26.459Z,40.62
2023-03-22T13:32:26.415Z,38.84
2023-03-22T13:33:26.303Z,37.43
2023-03-22T13:34:26.240Z,38.15
2023-03-22T13:35:26.244Z,36.47
2023-03-22T13:36:26.119Z,38.00
2023-03-22T13:37:26.053Z,36.88
2023-03-22T13:38:25.971Z,37.59
2023-03-22T13:39:26.024Z,38.32
2023-03-22T13:40:25.878Z,42.76
2023-03-22T13:41:25.775Z,42.87
2023-03-22T13:42:25.719Z,43.48
2023-03-22T13:43:25.715Z,44.91
2023-03-22T13:44:25.592Z,46.68
2023-03-22T13:45:25.679Z,43.01
2023-03-22T13:46:25.540Z,44.22
2023-03-22T13:47:25.411Z,46.40
2023-03-22T13:48:25.429Z,49.99
2023-03-22T13:49:25.254Z,55.48
2023-03-22T13:50:25.183Z,58.44
2023-03-22T13:51:25.101Z,58.80
2023-03-22T13:52:25.035Z,61.61
2023-03-22T13:53:24.988Z,62.74
2023-03-22T13:54:24.913Z,65.07
2023-03-22T13:55:24.858Z,65.23
2023-03-22T13:56:24.771Z,65.64
2023-03-22T13:57:24.702Z,67.25
2023-03-22T13:58:24.640Z,69.01
2023-03-22T13:59:24.584Z,73.97
2023-03-22T14:00:24.498Z,74.77
2023-03-22T14:01:24.471Z,74.29
2023-03-22T14:02:24.576Z,75.25
2023-03-22T14:03:24.550Z,76.01
2023-03-22T14:04:24.252Z,78.40
2023-03-22T14:05:24.175Z,79.82
2023-03-22T14:06:24.113Z,81.02
2023-03-22T14:07:24.068Z,80.17
2023-03-22T14:08:24.002Z,83.45
2023-03-22T14:09:23.909Z,82.26
2023-03-22T14:10:23.851Z,82.45
2023-03-22T14:11:23.763Z,82.99
2023-03-22T14:12:23.697Z,84.01
2023-03-22T14:13:23.629Z,85.41
2023-03-22T14:14:23.571Z,88.13
2023-03-22T14:15:23.481Z,91.05
2023-03-22T14:16:23.445Z,91.00
2023-03-22T14:17:23.350Z,88.57
2023-03-22T14:18:23.282Z,92.15
2023-03-22T14:19:23.237Z,92.26
2023-03-22T14:20:23.159Z,89.64
2023-03-22T14:21:23.069Z,93.31
2023-03-22T14:46:12.751Z,0.50
2023-03-22T14:47:12.738Z,0.50
2023-03-22T14:48:12.691Z,0.50
2023-03-22T14:52:12.594Z,0.50
2023-03-22T14:53:12.578Z,0.50
2023-03-22T14:54:12.580Z,0.51
2023-03-22T14:58:00.492Z,0.50
2023-03-22T15:00:00.485Z,0.50
2023-03-22T15:01:00.477Z,0.50
2023-03-22T15:02:00.476Z,0.50
2023-03-22T15:03:00.450Z,0.50
2023-03-22T15:07:48.369Z,0.50
2023-03-22T15:08:48.330Z,0.50
2023-03-22T15:10:48.256Z,0.50
2023-03-22T15:11:48.221Z,0.50
2023-03-22T15:12:48.191Z,0.51
2023-03-22T15:13:48.144Z,0.50
2023-03-22T15:17:36.037Z,0.50
2023-03-22T15:19:35.977Z,0.50
2023-03-22T15:21:35.891Z,0.50
2023-03-22T15:22:35.849Z,0.50
2023-03-22T15:23:35.812Z,0.50
2023-03-22T15:24:35.789Z,0.50
2023-03-22T15:27:23.735Z,0.50
2023-03-22T15:30:23.660Z,0.50
2023-03-22T15:31:23.642Z,0.50
2023-03-22T15:32:23.635Z,0.50
2023-03-22T15:33:23.613Z,0.50
2023-03-22T15:38:11.590Z,0.50
2023-03-22T15:39:11.502Z,0.50
2023-03-22T15:41:11.462Z,0.50
2023-03-22T15:42:11.464Z,0.50
2023-03-22T15:43:11.613Z,0.50
2023-03-22T15:47:59.364Z,0.50
2023-03-22T15:48:59.340Z,0.50
2023-03-22T15:49:59.319Z,0.50
2023-03-22T15:52:59.284Z,0.50
2023-03-22T15:53:59.249Z,0.51
2023-03-22T15:58:47.197Z,0.50
2023-03-22T15:59:47.171Z,0.50
2023-03-22T16:02:47.089Z,0.50
2023-03-22T16:03:47.125Z,0.50
2023-03-22T16:04:47.049Z,0.50
2023-03-22T16:09:34.967Z,0.50
2023-03-22T16:10:34.965Z,0.50
2023-03-22T16:13:34.874Z,0.51
2023-03-22T16:14:34.857Z,0.50
2023-03-22T16:15:34.825Z,0.50
2023-03-22T16:19:22.743Z,0.50
2023-03-22T16:20:22.765Z,0.50
2023-03-22T16:21:22.800Z,0.50
2023-03-22T16:22:22.682Z,0.50
2023-03-22T16:23:22.676Z,0.51
2023-03-22T16:24:22.648Z,0.50
2023-03-22T16:28:10.593Z,0.50
2023-03-22T16:29:10.588Z,0.50
2023-03-22T16:30:10.564Z,0.50
2023-03-22T16:31:10.586Z,0.50
2023-03-22T16:36:11.401Z,0.50
2023-03-22T16:40:58.463Z,0.50
2023-03-22T16:41:58.468Z,0.50
2023-03-22T16:42:58.458Z,0.50
2023-03-22T16:44:58.440Z,0.50
2023-03-22T16:45:58.427Z,0.50
2023-03-22T16:48:46.411Z,0.50
2023-03-22T16:51:46.482Z,0.50
2023-03-22T16:52:46.385Z,0.50
2023-03-22T16:53:46.373Z,0.50
2023-03-22T16:54:46.361Z,0.51
2023-03-22T16:56:46.346Z,0.51
2023-03-22T16:59:34.327Z,0.50